Time;durP1;ratioP1;P1;durP2;ratioP2;P2;SDS_P1;SDS_P2;PMS_P1;PMS_P2;Temp;Humidity;BMP_temperature;BMP_pressure;BME280_temperature;BME280_humidity;BME280_pressure;Samples;Min_cycle;Max_cycle;Signal;HPM_P1;HPM_P2
2023/01/03 11:09:59;;;;;;;;;36.75;32.25;;;;;;;;5083280;27;13490;-66
2023/01/03 11:12:37;;;;;;;;;38.25;34.75;;;;;;;;5086656;28;11515;-67
2023/01/03 11:15:28;;;;;;;;;34.25;31.75;;;;;;;;5069418;28;8804;-66
2023/01/03 11:17:57;;;;;;;;;40.75;34.00;;;;;;;;5083391;28;11466;-66
2023/01/03 11:20:29;;;;;;;;;40.75;34.25;;;;;;;;5086780;28;11424;-67
2023/01/03 11:23:00;;;;;;;;;37.00;33.50;;;;;;;;5086354;28;11438;-68
2023/01/03 11:25:25;;;;;;;;;32.25;29.50;;;;;;;;5086692;28;11836;-67
2023/01/03 11:28:23;;;;;;;;;32.25;27.00;;;;;;;;5086679;28;11224;-67
2023/01/03 11:30:55;;;;;;;;;33.00;28.50;;;;;;;;5024003;28;8885;-67
2023/01/03 11:33:28;;;;;;;;;37.75;35.00;;;;;;;;5023813;28;11081;-67
2023/01/03 11:36:12;;;;;;;;;39.00;33.00;;;;;;;;5024049;28;11464;-67
2023/01/03 11:38:54;;;;;;;;;27.25;23.00;;;;;;;;5023553;28;11460;-66
2023/01/03 11:41:37;;;;;;;;;31.75;27.25;;;;;;;;5024043;28;11467;-66
2023/01/03 11:44:21;;;;;;;;;49.00;39.00;;;;;;;;5023957;28;11448;-66
2023/01/03 11:46:54;;;;;;;;;51.50;42.50;;;;;;;;5023785;28;11503;-67
2023/01/03 11:49:26;;;;;;;;;45.75;39.75;;;;;;;;5023881;28;11671;-68
2023/01/03 11:51:51;;;;;;;;;40.75;35.75;;;;;;;;5023673;28;11678;-67
2023/01/03 11:54:35;;;;;;;;;40.50;35.75;;;;;;;;5023284;28;11507;-67
2023/01/03 11:57:04;;;;;;;;;39.50;35.75;;;;;;;;5023215;28;8798;-66
2023/01/03 11:59:43;;;;;;;;;38.00;36.00;;;;;;;;5023325;28;11465;-67
2023/01/03 12:02:28;;;;;;;;;36.25;35.25;;;;;;;;5023553;28;11502;-67
2023/01/03 18:17:25;;;;;;;;;63.33;49.67;;;;;;;;5090376;27;14169;-66
2023/01/03 18:19:50;;;;;;;;;60.33;49.00;;;;;;;;5072771;28;9820;-66
2023/01/03 18:22:16;;;;;;;;;63.67;50.00;;;;;;;;5072840;28;8901;-65
2023/01/03 18:24:41;;;;;;;;;64.00;53.00;;;;;;;;5075799;28;8830;-66
2023/01/03 18:27:07;;;;;;;;;68.00;52.67;;;;;;;;5093405;28;8868;-66
2023/01/03 18:29:33;;;;;;;;;64.33;52.00;;;;;;;;5091715;28;8806;-66
2023/01/03 18:31:58;;;;;;;;;57.67;47.33;;;;;;;;5092534;28;11554;-66
2023/01/03 18:34:23;;;;;;;;;62.00;50.33;;;;;;;;5096390;28;8830;-65
2023/01/03 18:36:50;;;;;;;;;65.67;51.00;;;;;;;;5090416;28;9598;-67
2023/01/03 18:39:24;;;;;;;;;67.00;51.33;;;;;;;;5086214;28;8824;-65
2023/01/03 18:41:50;;;;;;;;;62.75;46.00;;;;;;;;5084462;28;8806;-67
2023/01/03 18:44:17;;;;;;;;;63.00;50.25;;;;;;;;5086221;28;11645;-66
2023/01/03 18:46:46;;;;;;;;;57.00;48.00;;;;;;;;5084058;28;8861;-66
2023/01/03 18:49:11;;;;;;;;;70.67;56.00;;;;;;;;5065277;28;11538;-69
2023/01/03 18:51:36;;;;;;;;;63.33;52.33;;;;;;;;5070352;28;8844;-67
2023/01/03 18:54:02;;;;;;;;;72.33;53.67;;;;;;;;5083912;28;8806;-66
2023/01/03 18:56:32;;;;;;;;;64.00;52.67;;;;;;;;5083222;28;8826;-64
2023/01/03 18:59:00;;;;;;;;;71.67;54.67;;;;;;;;5085062;28;8823;-66
2023/01/03 19:01:25;;;;;;;;;68.67;54.33;;;;;;;;5082738;28;11598;-69
2023/01/03 19:03:51;;;;;;;;;66.33;51.67;;;;;;;;5084843;28;8791;-67
2023/01/03 19:06:20;;;;;;;;;63.67;52.67;;;;;;;;5075512;28;11296;-69
2023/01/03 19:08:46;;;;;;;;;69.00;54.00;;;;;;;;5060739;28;9801;-67
2023/01/03 19:11:16;;;;;;;;;68.33;53.00;;;;;;;;5077610;28;11531;-67
2023/01/03 19:13:49;;;;;;;;;69.00;53.00;;;;;;;;5063284;28;8869;-65
2023/01/03 19:16:24;;;;;;;;;63.50;50.00;;;;;;;;5048075;28;11584;-69
2023/01/03 19:18:50;;;;;;;;;59.75;48.75;;;;;;;;5044878;28;11554;-69
2023/01/03 19:21:16;;;;;;;;;62.00;48.75;;;;;;;;5045114;28;11575;-69
2023/01/03 19:23:43;;;;;;;;;57.75;48.00;;;;;;;;5043750;28;8859;-70
2023/01/03 19:26:23;;;;;;;;;55.75;44.50;;;;;;;;5044560;28;11542;-68
2023/01/03 19:28:49;;;;;;;;;47.25;41.00;;;;;;;;5031106;28;11584;-69
2023/01/03 19:31:14;;;;;;;;;54.50;42.75;;;;;;;;5035307;28;11527;-68
2023/01/03 19:33:40;;;;;;;;;62.00;48.25;;;;;;;;5041223;28;9641;-69
2023/01/03 19:36:12;;;;;;;;;57.50;45.00;;;;;;;;5041460;28;8988;-69
2023/01/03 19:38:37;;;;;;;;;62.00;50.00;;;;;;;;5044356;28;11533;-69
2023/01/03 19:41:03;;;;;;;;;66.67;50.33;;;;;;;;5038904;28;11526;-68
2023/01/03 19:43:28;;;;;;;;;62.67;52.67;;;;;;;;5040763;28;8840;-68
2023/01/03 19:45:53;;;;;;;;;59.75;46.75;;;;;;;;5040785;28;8793;-68
2023/01/03 19:48:20;;;;;;;;;71.67;54.00;;;;;;;;5037919;28;9541;-68
2023/01/03 19:50:45;;;;;;;;;64.00;50.00;;;;;;;;5039713;28;8875;-69
2023/01/03 19:53:14;;;;;;;;;63.00;51.00;;;;;;;;5038890;28;11522;-68
2023/01/03 19:55:41;;;;;;;;;62.33;50.00;;;;;;;;5040676;28;8858;-68
2023/01/03 19:58:12;;;;;;;;;65.67;51.67;;;;;;;;5040130;28;11523;-69
2023/01/03 20:00:37;;;;;;;;;67.33;54.00;;;;;;;;5039379;28;8891;-68
2023/01/03 20:03:05;;;;;;;;;65.00;51.00;;;;;;;;5036431;28;8829;-68
2023/01/03 20:05:34;;;;;;;;;67.67;55.33;;;;;;;;5029907;28;8825;-68
2023/01/03 20:08:06;;;;;;;;;69.00;54.67;;;;;;;;5028997;28;8813;-69
2023/01/03 20:10:34;;;;;;;;;66.33;52.00;;;;;;;;5029880;28;8829;-68
2023/01/03 20:13:01;;;;;;;;;63.67;50.00;;;;;;;;5030170;28;9512;-68
2023/01/03 20:15:34;;;;;;;;;60.00;48.00;;;;;;;;5032913;28;8861;-68
2023/01/03 20:17:59;;;;;;;;;53.25;42.00;;;;;;;;5039812;28;12285;-68
2023/01/03 20:20:29;;;;;;;;;49.50;40.25;;;;;;;;5029620;28;11644;-68
2023/01/03 20:22:58;;;;;;;;;45.75;40.25;;;;;;;;5031141;28;8801;-69
2023/01/03 20:25:23;;;;;;;;;56.50;44.25;;;;;;;;5028856;28;11540;-69
2023/01/03 20:27:49;;;;;;;;;47.25;40.25;;;;;;;;5038742;28;11602;-68
2023/01/03 20:30:15;;;;;;;;;46.50;40.50;;;;;;;;5039593;28;8811;-69
2023/01/03 20:32:47;;;;;;;;;53.50;46.25;;;;;;;;5035848;28;8957;-68
2023/01/03 20:35:16;;;;;;;;;55.25;47.00;;;;;;;;5036566;28;11529;-68
2023/01/03 20:37:44;;;;;;;;;53.50;43.50;;;;;;;;5035808;28;11573;-69
2023/01/03 20:40:14;;;;;;;;;50.00;41.00;;;;;;;;5035822;28;11553;-68
2023/01/03 20:42:39;;;;;;;;;61.25;49.50;;;;;;;;5038854;28;11570;-68
2023/01/03 20:45:04;;;;;;;;;54.75;44.00;;;;;;;;5038204;28;12268;-68
2023/01/03 20:47:30;;;;;;;;;58.50;47.50;;;;;;;;5038974;28;8826;-68
2023/01/03 20:49:55;;;;;;;;;62.00;49.25;;;;;;;;5035192;28;8810;-68
2023/01/03 20:52:20;;;;;;;;;67.67;54.33;;;;;;;;5033647;28;8822;-67
2023/01/03 20:54:46;;;;;;;;;63.00;52.00;;;;;;;;5039358;28;8818;-67
2023/01/03 20:57:15;;;;;;;;;65.00;50.33;;;;;;;;5043213;28;8935;-68
2023/01/03 20:59:40;;;;;;;;;82.00;63.00;;;;;;;;5028829;28;8934;-68
2023/01/03 21:02:05;;;;;;;;;104.00;89.00;;;;;;;;5029941;28;8801;-69
2023/01/03 21:04:30;;;;;;;;;108.25;90.50;;;;;;;;5028617;28;9532;-70
2023/01/03 21:06:56;;;;;;;;;95.00;73.33;;;;;;;;5028448;28;8904;-69
2023/01/03 21:09:22;;;;;;;;;78.00;65.00;;;;;;;;5027536;28;8827;-70
2023/01/03 21:11:47;;;;;;;;;81.00;63.67;;;;;;;;5028272;28;8817;-69
2023/01/03 21:14:13;;;;;;;;;75.00;59.00;;;;;;;;5028440;28;8959;-69
2023/01/03 21:16:43;;;;;;;;;72.67;59.00;;;;;;;;5026883;28;8845;-69
2023/01/03 21:19:11;;;;;;;;;81.00;64.33;;;;;;;;5028414;28;8836;-69
2023/01/03 21:21:37;;;;;;;;;72.67;59.00;;;;;;;;5029870;28;8974;-68
2023/01/03 21:24:03;;;;;;;;;79.67;62.00;;;;;;;;5029762;28;8820;-69
2023/01/03 21:26:28;;;;;;;;;72.67;59.00;;;;;;;;5029536;28;8805;-69
2023/01/03 21:28:57;;;;;;;;;74.33;59.00;;;;;;;;5029873;28;9605;-69
2023/01/03 21:31:22;;;;;;;;;70.33;60.33;;;;;;;;5029893;28;8824;-69
2023/01/03 21:33:48;;;;;;;;;77.67;61.33;;;;;;;;5029952;28;8809;-68
2023/01/03 21:36:17;;;;;;;;;74.67;62.00;;;;;;;;5029911;28;8833;-68
2023/01/03 21:38:42;;;;;;;;;76.67;60.67;;;;;;;;5029672;28;8802;-68
2023/01/03 21:41:14;;;;;;;;;78.00;63.00;;;;;;;;5029495;28;8802;-67
2023/01/03 21:43:39;;;;;;;;;80.33;63.00;;;;;;;;5029460;28;8836;-68
2023/01/03 21:46:05;;;;;;;;;88.00;66.67;;;;;;;;5029605;28;8825;-67
2023/01/03 21:48:30;;;;;;;;;79.67;62.00;;;;;;;;5029725;28;8863;-69
2023/01/03 21:50:56;;;;;;;;;85.00;67.00;;;;;;;;5027947;28;8798;-68
2023/01/03 21:53:22;;;;;;;;;81.33;64.00;;;;;;;;5028160;28;8944;-69
2023/01/03 21:55:47;;;;;;;;;77.00;62.00;;;;;;;;5029249;28;8928;-69
2023/01/03 21:58:13;;;;;;;;;75.00;59.00;;;;;;;;5029613;28;8825;-69
2023/01/03 22:00:39;;;;;;;;;73.67;57.00;;;;;;;;5028709;28;8844;-69
2023/01/03 22:05:48;;;;;;;;;75.00;58.00;;;;;;;;5028209;28;8813;-68
2023/01/03 22:08:13;;;;;;;;;70.00;57.00;;;;;;;;5029267;28;8982;-69
2023/01/03 22:10:40;;;;;;;;;72.00;56.33;;;;;;;;5028807;28;8874;-68
2023/01/03 22:13:06;;;;;;;;;64.00;53.25;;;;;;;;5029126;28;8828;-69
2023/01/03 22:15:34;;;;;;;;;66.00;54.00;;;;;;;;5028855;28;11563;-68
2023/01/03 22:17:59;;;;;;;;;75.33;60.67;;;;;;;;5029020;28;8813;-68
2023/01/03 22:20:25;;;;;;;;;69.33;57.00;;;;;;;;5029091;28;8802;-68
2023/01/03 22:22:51;;;;;;;;;71.67;55.00;;;;;;;;5029223;28;8932;-69
2023/01/03 22:25:17;;;;;;;;;73.00;59.00;;;;;;;;5027734;28;8805;-68
2023/01/03 22:27:43;;;;;;;;;66.67;55.33;;;;;;;;5029023;28;8994;-68
2023/01/03 22:30:18;;;;;;;;;73.67;55.33;;;;;;;;5028912;28;11511;-68
2023/01/03 22:32:43;;;;;;;;;70.33;57.33;;;;;;;;5029089;28;8988;-69
2023/01/03 22:35:10;;;;;;;;;69.67;55.67;;;;;;;;5029142;28;8902;-69
2023/01/03 22:37:35;;;;;;;;;72.33;56.00;;;;;;;;5028843;28;8821;-69
2023/01/03 22:40:01;;;;;;;;;63.33;51.00;;;;;;;;5028652;28;11783;-69
2023/01/03 22:42:26;;;;;;;;;68.00;55.33;;;;;;;;5028942;28;8801;-69
2023/01/03 22:44:51;;;;;;;;;75.00;59.33;;;;;;;;5029051;28;8876;-69
2023/01/03 22:47:17;;;;;;;;;69.33;53.67;;;;;;;;5029069;28;8825;-69
2023/01/03 22:49:42;;;;;;;;;69.00;57.33;;;;;;;;5028883;28;9543;-68
2023/01/03 22:52:07;;;;;;;;;79.33;58.67;;;;;;;;5028810;28;8793;-68
2023/01/03 22:54:34;;;;;;;;;66.33;53.00;;;;;;;;5028608;28;8796;-67
2023/01/03 22:56:59;;;;;;;;;66.33;53.33;;;;;;;;5028342;28;8845;-68
2023/01/03 22:59:25;;;;;;;;;66.33;53.33;;;;;;;;5028709;28;8805;-67
2023/01/03 23:01:50;;;;;;;;;68.33;54.67;;;;;;;;5028918;28;8828;-67
2023/01/03 23:04:19;;;;;;;;;71.00;55.33;;;;;;;;5032426;28;8835;-67
2023/01/03 23:06:45;;;;;;;;;68.67;55.67;;;;;;;;5032350;28;8802;-68
2023/01/03 23:09:11;;;;;;;;;68.00;56.33;;;;;;;;5032181;28;8825;-67
2023/01/03 23:14:21;;;;;;;;;72.67;59.67;;;;;;;;5031945;28;9548;-68
2023/01/03 23:16:46;;;;;;;;;75.33;58.33;;;;;;;;5032474;28;8838;-68
2023/01/03 23:19:15;;;;;;;;;77.00;59.33;;;;;;;;5032127;28;8798;-68
2023/01/03 23:21:41;;;;;;;;;74.00;59.00;;;;;;;;5032083;28;8801;-68
2023/01/03 23:24:10;;;;;;;;;67.67;54.00;;;;;;;;5032086;28;8785;-69
2023/01/03 23:26:36;;;;;;;;;70.00;57.00;;;;;;;;5032177;28;8852;-67
2023/01/03 23:29:01;;;;;;;;;68.33;54.33;;;;;;;;5031939;28;11539;-67
2023/01/03 23:31:26;;;;;;;;;66.00;54.33;;;;;;;;5031442;28;9540;-68
2023/01/03 23:33:55;;;;;;;;;60.67;49.00;;;;;;;;5031832;28;8798;-68
2023/01/03 23:36:21;;;;;;;;;71.00;55.00;;;;;;;;5031829;28;8845;-68
2023/01/03 23:38:46;;;;;;;;;64.33;50.00;;;;;;;;5031928;28;8894;-68
2023/01/03 23:41:11;;;;;;;;;64.00;52.67;;;;;;;;5031825;28;8810;-67
2023/01/03 23:43:37;;;;;;;;;68.50;52.75;;;;;;;;5031718;28;8786;-67
2023/01/03 23:46:03;;;;;;;;;67.75;53.25;;;;;;;;5031682;28;8809;-68
2023/01/03 23:48:28;;;;;;;;;66.67;53.00;;;;;;;;5031512;28;9614;-67
2023/01/03 23:50:59;;;;;;;;;66.67;55.00;;;;;;;;5031199;28;8794;-68
2023/01/03 23:53:25;;;;;;;;;69.33;53.33;;;;;;;;5031691;28;8939;-67
2023/01/03 23:55:50;;;;;;;;;68.67;55.67;;;;;;;;5031532;28;8963;-67
2023/01/03 23:58:15;;;;;;;;;75.67;55.33;;;;;;;;5031524;28;8793;-67
